X  Schlie├čen METAR Luftfahrt Wetterdaten     LYNI Nis Airport
Temperatur
4°C Temperatur
1°C Taupunkt
81% Feuchtigkeit



Wind
13 KM/S
8 MPS
4 M/S
7 KTS



40°
NO
Aktuelle Wetterlage

Leicht  Regen Leicht Regen
Luftdruck 1018.92 (hPa) - 30.09 (inHg)
Sichtweite 6.2 (Meile) - 10 (Km)
Flughafen
Flughafen Code LYNI

Position : Nis Airport
Entfernung: 63 (Km)

Metar:
LYNI 011030Z 04007KT 360V080 9999 -RA FEW017 SCT033 04/01 Q1019 NOSIG

Zeit: 01-12-2022 11:30 CET